MUVR

Juan Gualberto Gomez International Airport

ICAO Code MUVR
IATA Code VRA
Name Juan Gualberto Gomez International Airport
Location Varadero, Matanzas, CU
Elevation 210 Feet / 64 Meters
Latitude 23.03440094
Longitude -81.43530273
METAR MUVR 012350Z 16006KT 120V190 9000 TS SCT017CB 25/25 Q1018
Extra information Display Charts and CFS
Display NOTAMS
Runway Length Width Surface Elevation
06 11490 ft 148 ft ASP 210 ft
24 11490 ft 148 ft ASP 210 ft